createdAt,value
2017-11-25T00:00:02.332Z,9.26
2017-11-25T00:00:28.448Z,9.29
2017-11-25T00:00:54.823Z,9.23
2017-11-25T00:01:20.974Z,9.29
2017-11-25T00:01:47.090Z,9.37
2017-11-25T00:02:13.225Z,9.34
2017-11-25T00:02:39.340Z,9.37
2017-11-25T00:03:05.477Z,9.36
2017-11-25T00:03:31.622Z,9.28
2017-11-25T00:03:57.748Z,9.28
2017-11-25T00:04:23.856Z,9.22
2017-11-25T00:04:49.977Z,9.26
2017-11-25T00:05:16.103Z,9.21
2017-11-25T00:05:42.240Z,9.23
2017-11-25T00:06:08.365Z,9.22
2017-11-25T00:06:34.512Z,9.22
2017-11-25T00:07:00.630Z,9.16
2017-11-25T00:07:26.759Z,9.23
2017-11-25T00:07:52.874Z,9.26
2017-11-25T00:08:18.999Z,9.26
2017-11-25T00:08:45.116Z,9.28
2017-11-25T00:09:11.243Z,9.29
2017-11-25T00:09:37.359Z,9.34
2017-11-25T00:10:03.502Z,9.36
2017-11-25T00:10:29.630Z,9.4
2017-11-25T00:10:55.746Z,9.36
2017-11-25T00:11:21.889Z,9.31
2017-11-25T00:11:48.014Z,9.31
2017-11-25T00:12:14.131Z,9.34
2017-11-25T00:12:40.256Z,9.26
2017-11-25T00:13:06.380Z,9.32
2017-11-25T00:13:32.498Z,9.36
2017-11-25T00:13:58.644Z,9.32
2017-11-25T00:14:24.764Z,9.16
2017-11-25T00:14:50.954Z,9.29
2017-11-25T00:15:17.111Z,9.13
2017-11-25T00:15:43.246Z,9.03
2017-11-25T00:16:09.365Z,8.99
2017-11-25T00:16:35.492Z,8.87
2017-11-25T00:17:01.658Z,8.85
2017-11-25T00:17:27.763Z,8.84
2017-11-25T00:17:53.885Z,8.73
2017-11-25T00:18:20.026Z,8.71
2017-11-25T00:18:46.139Z,8.7
2017-11-25T00:19:12.265Z,8.63
2017-11-25T00:19:38.388Z,8.55
2017-11-25T00:20:04.501Z,8.52
2017-11-25T00:20:30.628Z,8.6
2017-11-25T00:20:56.743Z,8.49
2017-11-25T00:21:22.873Z,8.6
2017-11-25T00:21:48.988Z,8.52
2017-11-25T00:22:15.114Z,8.6
2017-11-25T00:22:41.246Z,8.61
2017-11-25T00:23:07.432Z,8.64
2017-11-25T00:23:33.550Z,8.61
2017-11-25T00:23:59.668Z,8.7
2017-11-25T00:24:25.828Z,8.78
2017-11-25T00:24:51.961Z,8.85
2017-11-25T00:25:18.082Z,8.82
2017-11-25T00:25:44.208Z,8.87
2017-11-25T00:26:10.346Z,8.79
2017-11-25T00:26:36.466Z,8.87
2017-11-25T00:27:02.591Z,8.87
2017-11-25T00:27:28.711Z,8.94
2017-11-25T00:27:54.881Z,8.89
2017-11-25T00:28:21.018Z,8.87
2017-11-25T00:28:47.198Z,9.02
2017-11-25T00:29:13.343Z,9.04
2017-11-25T00:29:39.469Z,8.99
2017-11-25T00:30:05.585Z,9.08
2017-11-25T00:30:31.711Z,9.16
2017-11-25T00:30:57.853Z,9.14
2017-11-25T00:31:23.968Z,9.21
2017-11-25T00:31:50.095Z,9.22
2017-11-25T00:32:16.236Z,9.36
2017-11-25T00:32:42.381Z,9.32
2017-11-25T00:33:08.526Z,9.26
2017-11-25T00:33:34.658Z,9.31
2017-11-25T00:34:00.765Z,9.32
2017-11-25T00:34:26.884Z,9.31
2017-11-25T00:34:53.002Z,9.41
2017-11-25T00:35:19.117Z,9.4
2017-11-25T00:35:45.246Z,9.34
2017-11-25T00:36:11.373Z,9.36
2017-11-25T00:36:37.519Z,9.39
2017-11-25T00:37:03.614Z,9.39
2017-11-25T00:37:29.765Z,9.36
2017-11-25T00:37:55.923Z,9.39
2017-11-25T00:38:22.044Z,9.41
2017-11-25T00:38:48.165Z,9.29
2017-11-25T00:39:14.285Z,9.22
2017-11-25T00:39:40.405Z,9.23
2017-11-25T00:40:06.542Z,9.19
2017-11-25T00:40:32.664Z,9.21
2017-11-25T00:40:58.796Z,9.25
2017-11-25T00:41:24.913Z,9.23
2017-11-25T00:41:51.028Z,9.22
2017-11-25T00:42:17.178Z,9.22
2017-11-25T00:42:43.316Z,9.21
2017-11-25T00:43:09.463Z,9.37
2017-11-25T00:43:35.586Z,9.29
2017-11-25T00:44:01.702Z,9.31
2017-11-25T00:44:27.821Z,9.41
2017-11-25T00:44:53.946Z,9.43
2017-11-25T00:45:20.066Z,9.4
2017-11-25T00:45:46.184Z,9.44
2017-11-25T00:46:12.307Z,9.39
2017-11-25T00:46:38.463Z,9.44
2017-11-25T00:47:04.578Z,9.32
2017-11-25T00:47:30.689Z,9.39
2017-11-25T00:47:56.816Z,9.28
2017-11-25T00:48:22.940Z,9.36
2017-11-25T00:48:49.059Z,9.46
2017-11-25T00:49:15.186Z,9.44
2017-11-25T00:49:41.301Z,9.55
2017-11-25T00:50:07.418Z,9.56
2017-11-25T00:50:33.542Z,9.58
2017-11-25T00:50:59.661Z,9.61
2017-11-25T00:51:25.786Z,9.51
2017-11-25T00:51:51.977Z,9.61
2017-11-25T00:52:18.049Z,9.62
2017-11-25T00:52:44.188Z,9.59
2017-11-25T00:53:10.311Z,9.51
2017-11-25T00:53:36.452Z,9.59
2017-11-25T00:54:02.575Z,9.55
2017-11-25T00:54:28.727Z,9.59
2017-11-25T00:54:54.823Z,9.55
2017-11-25T00:55:20.943Z,9.65
2017-11-25T00:55:47.056Z,9.62
2017-11-25T00:56:13.178Z,9.59
2017-11-25T00:56:39.310Z,9.56
2017-11-25T00:57:05.431Z,9.61
2017-11-25T00:57:31.557Z,9.48
2017-11-25T00:57:57.722Z,9.44
2017-11-25T00:58:23.841Z,9.51
2017-11-25T00:58:49.964Z,9.59
2017-11-25T00:59:16.095Z,9.56
2017-11-25T00:59:42.215Z,9.62
2017-11-25T01:00:08.357Z,9.64
2017-11-25T01:00:34.545Z,9.59
2017-11-25T01:01:00.965Z,9.58
2017-11-25T01:01:27.081Z,9.55
2017-11-25T01:01:53.204Z,9.54
2017-11-25T01:02:19.624Z,9.61
2017-11-25T01:02:46.001Z,9.62
2017-11-25T01:03:12.116Z,9.62
2017-11-25T01:03:38.235Z,9.59
2017-11-25T01:04:04.387Z,9.59
2017-11-25T01:04:30.518Z,9.54
2017-11-25T01:04:56.638Z,9.51
2017-11-25T01:05:22.843Z,9.61
2017-11-25T01:05:48.993Z,9.64
2017-11-25T01:06:15.113Z,9.59
2017-11-25T01:06:41.230Z,9.54
2017-11-25T01:07:07.355Z,9.62
2017-11-25T01:07:33.478Z,9.54
2017-11-25T01:07:59.615Z,9.46
2017-11-25T01:08:25.764Z,9.34
2017-11-25T01:08:52.081Z,9.19
2017-11-25T01:09:18.206Z,9.06
2017-11-25T01:09:44.383Z,9.04
2017-11-25T01:10:10.518Z,8.91
2017-11-25T01:10:36.731Z,9
2017-11-25T01:11:02.905Z,8.87
2017-11-25T01:11:29.046Z,8.87
2017-11-25T01:11:55.190Z,8.91
2017-11-25T01:12:21.305Z,8.87
2017-11-25T01:12:47.489Z,8.87
2017-11-25T01:13:13.638Z,8.91
2017-11-25T01:13:39.785Z,8.94
2017-11-25T01:14:05.909Z,8.95
2017-11-25T01:14:32.028Z,8.94
2017-11-25T01:14:58.179Z,8.87
2017-11-25T01:15:24.300Z,8.87
2017-11-25T01:15:50.466Z,8.85
2017-11-25T01:16:16.618Z,8.95
2017-11-25T01:16:42.777Z,8.87
2017-11-25T01:17:08.997Z,8.85
2017-11-25T01:17:35.184Z,8.88
2017-11-25T01:18:01.341Z,8.89
2017-11-25T01:18:27.519Z,8.89
2017-11-25T01:18:53.685Z,8.95
2017-11-25T01:19:19.838Z,8.97
2017-11-25T01:19:46.000Z,8.91
2017-11-25T01:20:12.158Z,8.97
2017-11-25T01:20:38.343Z,9.04
2017-11-25T01:21:04.537Z,9.06
2017-11-25T01:21:30.701Z,9.02
2017-11-25T01:21:56.855Z,9.04
2017-11-25T01:22:23.011Z,9.08
2017-11-25T01:22:49.285Z,9.04
2017-11-25T01:23:15.438Z,9
2017-11-25T01:23:41.603Z,9.02
2017-11-25T01:24:07.775Z,9.04
2017-11-25T01:24:33.920Z,9.03
2017-11-25T01:25:00.079Z,9.02
2017-11-25T01:25:26.436Z,8.88
2017-11-25T01:25:52.588Z,8.85
2017-11-25T01:26:18.752Z,8.92
2017-11-25T01:26:44.913Z,8.82
2017-11-25T01:27:11.061Z,8.82
2017-11-25T01:27:37.220Z,8.79
2017-11-25T01:28:03.380Z,8.71
2017-11-25T01:28:29.563Z,8.64
2017-11-25T01:28:55.765Z,8.71
2017-11-25T01:29:21.927Z,8.6
2017-11-25T01:29:48.088Z,8.67
2017-11-25T01:30:14.239Z,8.6
2017-11-25T01:30:40.399Z,8.61
2017-11-25T01:31:06.562Z,8.66
2017-11-25T01:31:32.717Z,8.66
2017-11-25T01:31:58.905Z,8.7
2017-11-25T01:32:25.091Z,8.63
2017-11-25T01:32:51.276Z,8.74
2017-11-25T01:33:17.465Z,8.56
2017-11-25T01:33:43.623Z,8.67
2017-11-25T01:34:09.779Z,8.63
2017-11-25T01:34:35.939Z,8.61
2017-11-25T01:35:02.093Z,8.63
2017-11-25T01:35:28.247Z,8.66
2017-11-25T01:35:54.408Z,8.56
2017-11-25T01:36:20.593Z,8.7
2017-11-25T01:36:46.771Z,8.74
2017-11-25T01:37:12.960Z,8.79
2017-11-25T01:37:39.136Z,8.82
2017-11-25T01:38:05.297Z,8.78
2017-11-25T01:38:31.454Z,8.81
2017-11-25T01:38:57.610Z,8.74
2017-11-25T01:39:23.761Z,8.74
2017-11-25T01:39:49.947Z,8.76
2017-11-25T01:40:16.108Z,8.84
2017-11-25T01:40:42.548Z,8.85
2017-11-25T01:41:08.704Z,8.79
2017-11-25T01:41:34.861Z,8.87
2017-11-25T01:42:01.042Z,8.82
2017-11-25T01:42:27.178Z,8.82
2017-11-25T01:42:53.367Z,8.92
2017-11-25T01:43:19.487Z,8.78
2017-11-25T01:43:45.652Z,8.78
2017-11-25T01:44:11.837Z,8.74
2017-11-25T01:44:37.990Z,8.79
2017-11-25T01:45:04.152Z,8.71
2017-11-25T01:45:30.316Z,8.74
2017-11-25T01:45:56.469Z,8.84
2017-11-25T01:46:22.633Z,8.84
2017-11-25T01:46:48.814Z,8.88
2017-11-25T01:47:14.974Z,9.02
2017-11-25T01:47:41.131Z,8.89
2017-11-25T01:48:07.291Z,8.95
2017-11-25T01:48:33.450Z,9
2017-11-25T01:48:59.608Z,9
2017-11-25T01:49:25.760Z,9.04
2017-11-25T01:49:51.923Z,9.14
2017-11-25T01:50:18.077Z,9.1
2017-11-25T01:50:44.238Z,9.11
2017-11-25T01:51:10.403Z,9.11
2017-11-25T01:51:36.580Z,9.23
2017-11-25T01:52:02.743Z,9.25
2017-11-25T01:52:28.901Z,9.22
2017-11-25T01:52:55.060Z,9.28
2017-11-25T01:53:21.215Z,9.29
2017-11-25T01:53:47.377Z,9.26
2017-11-25T01:54:13.557Z,9.23
2017-11-25T01:54:39.945Z,9.26
2017-11-25T01:55:06.110Z,9.21
2017-11-25T01:55:32.261Z,9.31
2017-11-25T01:55:58.429Z,9.34
2017-11-25T01:56:24.607Z,9.36
2017-11-25T01:56:50.761Z,9.34
2017-11-25T01:57:16.915Z,9.41
2017-11-25T01:57:43.073Z,9.39
2017-11-25T01:58:09.260Z,9.43
2017-11-25T01:58:36.162Z,9.44
2017-11-25T01:59:02.315Z,9.44
2017-11-25T01:59:28.473Z,9.48
2017-11-25T01:59:54.639Z,9.46
2017-11-25T02:00:20.791Z,9.54
2017-11-25T02:00:46.946Z,9.44
2017-11-25T02:01:13.109Z,9.46
2017-11-25T02:01:39.270Z,9.5
2017-11-25T02:02:05.430Z,9.48
2017-11-25T02:02:31.620Z,9.56
2017-11-25T02:02:57.766Z,9.5
2017-11-25T02:03:23.925Z,9.62
2017-11-25T02:03:50.079Z,9.55
2017-11-25T02:04:16.237Z,9.61
2017-11-25T02:04:42.387Z,9.65
2017-11-25T02:05:08.545Z,9.54
2017-11-25T02:05:34.711Z,9.58
2017-11-25T02:06:00.861Z,9.58
2017-11-25T02:06:27.019Z,9.61
2017-11-25T02:06:53.176Z,9.62
2017-11-25T02:07:19.363Z,9.58
2017-11-25T02:07:45.530Z,9.58
2017-11-25T02:08:11.686Z,9.56
2017-11-25T02:08:37.848Z,9.58
2017-11-25T02:09:04.008Z,9.51
2017-11-25T02:09:30.159Z,9.58
2017-11-25T02:09:56.316Z,9.46
2017-11-25T02:10:22.468Z,9.5
2017-11-25T02:10:48.632Z,9.51
2017-11-25T02:11:14.792Z,9.47
2017-11-25T02:11:40.947Z,9.41
2017-11-25T02:12:07.104Z,9.48
2017-11-25T02:12:33.261Z,9.43
2017-11-25T02:12:59.417Z,9.39
2017-11-25T02:13:25.579Z,9.36
2017-11-25T02:13:51.743Z,9.41
2017-11-25T02:14:17.925Z,9.47
2017-11-25T02:14:44.087Z,9.47
2017-11-25T02:15:10.270Z,9.41
2017-11-25T02:15:36.407Z,9.5
2017-11-25T02:16:02.562Z,9.44
2017-11-25T02:16:28.713Z,9.48
2017-11-25T02:16:54.881Z,9.48
2017-11-25T02:17:21.047Z,9.48
2017-11-25T02:17:47.203Z,9.46
2017-11-25T02:18:13.360Z,9.41
2017-11-25T02:18:39.522Z,9.43
2017-11-25T02:19:05.683Z,9.43
2017-11-25T02:19:31.834Z,9.48
2017-11-25T02:19:58.024Z,9.41
2017-11-25T02:20:24.181Z,9.44
2017-11-25T02:20:50.334Z,9.29
2017-11-25T02:21:16.498Z,9.46
2017-11-25T02:21:42.680Z,9.43
2017-11-25T02:22:08.842Z,9.41
2017-11-25T02:22:34.998Z,9.41
2017-11-25T02:23:01.163Z,9.44
2017-11-25T02:23:27.314Z,9.47
2017-11-25T02:23:53.466Z,9.46
2017-11-25T02:24:19.624Z,9.47
2017-11-25T02:24:45.786Z,9.56
2017-11-25T02:25:11.943Z,9.47
2017-11-25T02:25:38.103Z,9.47
2017-11-25T02:26:04.258Z,9.47
2017-11-25T02:26:30.418Z,9.5
2017-11-25T02:26:56.576Z,9.59
2017-11-25T02:27:22.760Z,9.56
2017-11-25T02:27:48.949Z,9.48
2017-11-25T02:28:15.110Z,9.58
2017-11-25T02:28:41.269Z,9.61
2017-11-25T02:29:07.451Z,9.54
2017-11-25T02:29:33.603Z,9.64
2017-11-25T02:29:59.763Z,9.68
2017-11-25T02:30:25.917Z,9.59
2017-11-25T02:30:52.101Z,9.59
2017-11-25T02:31:18.267Z,9.59
2017-11-25T02:31:44.448Z,9.62
2017-11-25T02:32:10.612Z,9.64
2017-11-25T02:32:36.769Z,9.55
2017-11-25T02:33:02.923Z,9.61
2017-11-25T02:33:29.079Z,9.58
2017-11-25T02:33:55.242Z,9.5
2017-11-25T02:34:21.398Z,9.58
2017-11-25T02:34:47.549Z,9.59
2017-11-25T02:35:13.715Z,9.51
2017-11-25T02:35:39.874Z,9.47
2017-11-25T02:36:06.061Z,9.54
2017-11-25T02:36:32.214Z,9.54
2017-11-25T02:36:58.371Z,9.51
2017-11-25T02:37:24.526Z,9.55
2017-11-25T02:37:50.691Z,9.58
2017-11-25T02:38:16.849Z,9.59
2017-11-25T02:38:43.002Z,9.48
2017-11-25T02:39:09.168Z,9.51
2017-11-25T02:39:35.321Z,9.58
2017-11-25T02:40:01.486Z,9.56
2017-11-25T02:40:27.640Z,9.59
2017-11-25T02:40:53.791Z,9.59
2017-11-25T02:41:19.954Z,9.58
2017-11-25T02:41:46.106Z,9.68
2017-11-25T02:42:12.267Z,9.65
2017-11-25T02:42:38.430Z,9.61
2017-11-25T02:43:04.578Z,9.66
2017-11-25T02:43:30.740Z,9.65
2017-11-25T02:43:56.921Z,9.58
2017-11-25T02:44:23.100Z,9.69
2017-11-25T02:44:49.264Z,9.61
2017-11-25T02:45:15.450Z,9.72
2017-11-25T02:45:41.638Z,9.66
2017-11-25T02:46:07.794Z,9.59
2017-11-25T02:46:33.949Z,9.55
2017-11-25T02:47:00.106Z,9.56
2017-11-25T02:47:26.270Z,9.69
2017-11-25T02:47:52.418Z,9.68
2017-11-25T02:48:18.608Z,9.64
2017-11-25T02:48:44.765Z,9.76
2017-11-25T02:49:10.928Z,9.73
2017-11-25T02:49:37.083Z,9.8
2017-11-25T02:50:03.246Z,9.72
2017-11-25T02:50:29.391Z,9.62
2017-11-25T02:50:55.560Z,9.62
2017-11-25T02:51:21.742Z,9.68
2017-11-25T02:51:47.895Z,9.72
2017-11-25T02:52:14.052Z,9.65
2017-11-25T02:52:40.209Z,9.56
2017-11-25T02:53:06.366Z,9.61
2017-11-25T02:53:32.531Z,9.61
2017-11-25T02:53:58.687Z,9.66
2017-11-25T02:54:24.856Z,9.54
2017-11-25T02:54:51.039Z,9.51
2017-11-25T02:55:17.191Z,9.66
2017-11-25T02:55:43.339Z,9.58
2017-11-25T02:56:09.499Z,9.61
2017-11-25T02:56:35.657Z,9.69
2017-11-25T02:57:01.823Z,9.68
2017-11-25T02:57:27.975Z,9.73
2017-11-25T02:57:54.123Z,9.66
2017-11-25T02:58:20.279Z,9.64
2017-11-25T02:58:46.440Z,9.65
2017-11-25T02:59:12.602Z,9.58
2017-11-25T02:59:38.758Z,9.56
2017-11-25T03:00:04.941Z,9.64
2017-11-25T03:00:31.105Z,9.5
2017-11-25T03:00:57.257Z,9.44
2017-11-25T03:01:23.425Z,9.47
2017-11-25T03:01:49.582Z,9.46
2017-11-25T03:02:15.737Z,9.51
2017-11-25T03:02:41.902Z,9.5
2017-11-25T03:03:08.055Z,9.54
2017-11-25T03:03:34.215Z,9.5
2017-11-25T03:04:00.382Z,9.48
2017-11-25T03:04:26.527Z,9.56
2017-11-25T03:04:52.688Z,9.5
2017-11-25T03:05:18.851Z,9.51
2017-11-25T03:05:45.007Z,9.54
2017-11-25T03:06:11.163Z,9.56
2017-11-25T03:06:37.323Z,9.48
2017-11-25T03:07:03.476Z,9.56
2017-11-25T03:07:29.638Z,9.59
2017-11-25T03:07:55.797Z,9.55
2017-11-25T03:08:21.963Z,9.61
2017-11-25T03:08:48.122Z,9.66
2017-11-25T03:09:14.273Z,9.66
2017-11-25T03:09:40.427Z,9.58
2017-11-25T03:10:06.589Z,9.61
2017-11-25T03:10:32.748Z,9.62
2017-11-25T03:10:58.904Z,9.62
2017-11-25T03:11:25.066Z,9.58
2017-11-25T03:11:51.253Z,9.51
2017-11-25T03:12:17.408Z,9.58
2017-11-25T03:12:43.565Z,9.65
2017-11-25T03:13:09.754Z,9.58
2017-11-25T03:13:35.940Z,9.58
2017-11-25T03:14:02.128Z,9.58
2017-11-25T03:14:28.285Z,9.5
2017-11-25T03:14:54.473Z,9.54
2017-11-25T03:15:20.625Z,9.56
2017-11-25T03:15:46.785Z,9.56
2017-11-25T03:16:12.940Z,9.51
2017-11-25T03:16:39.097Z,9.5
2017-11-25T03:17:05.286Z,9.55
2017-11-25T03:17:31.443Z,9.56
2017-11-25T03:17:57.596Z,9.58
2017-11-25T03:18:23.753Z,9.55
2017-11-25T03:18:49.917Z,9.51
2017-11-25T03:19:16.101Z,9.59
2017-11-25T03:19:42.259Z,9.58
2017-11-25T03:20:08.421Z,9.56
2017-11-25T03:20:34.574Z,9.56
2017-11-25T03:21:00.725Z,9.51
2017-11-25T03:21:26.887Z,9.5
2017-11-25T03:21:53.042Z,9.54
2017-11-25T03:22:19.200Z,9.54
2017-11-25T03:22:45.360Z,9.64
2017-11-25T03:23:11.515Z,9.46
2017-11-25T03:23:37.674Z,9.59
2017-11-25T03:24:03.829Z,9.58
2017-11-25T03:24:29.990Z,9.56
2017-11-25T03:24:56.147Z,9.58
2017-11-25T03:25:22.302Z,9.54
2017-11-25T03:25:48.476Z,9.55
2017-11-25T03:26:14.621Z,9.55
2017-11-25T03:26:40.777Z,9.64
2017-11-25T03:27:06.951Z,9.48
2017-11-25T03:27:33.120Z,9.56
2017-11-25T03:27:59.254Z,9.48
2017-11-25T03:28:25.417Z,9.62
2017-11-25T03:28:51.577Z,9.59
2017-11-25T03:29:17.730Z,9.64
2017-11-25T03:29:43.890Z,9.56
2017-11-25T03:30:10.048Z,9.62
2017-11-25T03:30:36.225Z,9.56
2017-11-25T03:31:02.361Z,9.47
2017-11-25T03:31:28.520Z,9.54
2017-11-25T03:31:54.672Z,9.51
2017-11-25T03:32:20.833Z,9.59
2017-11-25T03:32:46.983Z,9.55
2017-11-25T03:33:13.140Z,9.56
2017-11-25T03:33:39.303Z,9.62
2017-11-25T03:34:05.457Z,9.56
2017-11-25T03:34:31.620Z,9.5
2017-11-25T03:34:57.782Z,9.44
2017-11-25T03:35:23.957Z,9.46
2017-11-25T03:35:50.122Z,9.54
2017-11-25T03:36:16.277Z,9.5
2017-11-25T03:36:42.438Z,9.41
2017-11-25T03:37:08.594Z,9.39
2017-11-25T03:37:34.748Z,9.41
2017-11-25T03:38:00.912Z,9.39
2017-11-25T03:38:27.071Z,9.46
2017-11-25T03:38:53.224Z,9.44
2017-11-25T03:39:19.385Z,9.48
2017-11-25T03:39:45.544Z,9.48
2017-11-25T03:40:11.695Z,9.43
2017-11-25T03:40:37.860Z,9.54
2017-11-25T03:41:04.067Z,9.51
2017-11-25T03:41:30.295Z,9.46
2017-11-25T03:41:56.478Z,9.46
2017-11-25T03:42:22.668Z,9.5
2017-11-25T03:42:48.815Z,9.51
2017-11-25T03:43:14.968Z,9.54
2017-11-25T03:43:41.130Z,9.56
2017-11-25T03:44:07.287Z,9.47
2017-11-25T03:44:33.437Z,9.46
2017-11-25T03:44:59.603Z,9.43
2017-11-25T03:45:25.759Z,9.43
2017-11-25T03:45:51.918Z,9.46
2017-11-25T03:46:18.079Z,9.46
2017-11-25T03:46:44.235Z,9.44
2017-11-25T03:47:10.393Z,9.51
2017-11-25T03:47:36.553Z,9.54
2017-11-25T03:48:02.733Z,9.47
2017-11-25T03:48:28.892Z,9.51
2017-11-25T03:48:55.044Z,9.47
2017-11-25T03:49:21.209Z,9.47
2017-11-25T03:49:47.364Z,9.47
2017-11-25T03:50:13.526Z,9.54
2017-11-25T03:50:39.678Z,9.5
2017-11-25T03:51:05.837Z,9.48
2017-11-25T03:51:31.997Z,9.54
2017-11-25T03:51:58.163Z,9.5
2017-11-25T03:52:24.320Z,9.48
2017-11-25T03:52:50.473Z,9.5
2017-11-25T03:53:16.660Z,9.47
2017-11-25T03:53:42.824Z,9.54
2017-11-25T03:54:08.975Z,9.46
2017-11-25T03:54:35.132Z,9.43
2017-11-25T03:55:01.294Z,9.46
2017-11-25T03:55:27.478Z,9.5
2017-11-25T03:55:53.643Z,9.43
2017-11-25T03:56:19.796Z,9.36
2017-11-25T03:56:45.954Z,9.37
2017-11-25T03:57:12.114Z,9.41
2017-11-25T03:57:38.272Z,9.41
2017-11-25T03:58:04.432Z,9.47
2017-11-25T03:58:30.583Z,9.44
2017-11-25T03:58:56.772Z,9.43
2017-11-25T03:59:22.934Z,9.47
2017-11-25T03:59:49.087Z,9.37
2017-11-25T04:00:15.242Z,9.44
2017-11-25T04:00:41.437Z,9.44
2017-11-25T04:01:07.619Z,9.47
2017-11-25T04:01:33.778Z,9.51
2017-11-25T04:01:59.940Z,9.54
2017-11-25T04:02:26.095Z,9.58
2017-11-25T04:02:52.254Z,9.44
2017-11-25T04:03:18.418Z,9.56
2017-11-25T04:03:44.574Z,9.41
2017-11-25T04:04:10.736Z,9.5
2017-11-25T04:04:36.889Z,9.48
2017-11-25T04:05:03.064Z,9.44
2017-11-25T04:05:29.246Z,9.43
2017-11-25T04:05:55.401Z,9.5
2017-11-25T04:06:21.553Z,9.46
2017-11-25T04:06:47.704Z,9.44
2017-11-25T04:07:13.869Z,9.5
2017-11-25T04:07:40.048Z,9.44
2017-11-25T04:08:06.204Z,9.4
2017-11-25T04:08:32.362Z,9.47
2017-11-25T04:08:58.516Z,9.44
2017-11-25T04:09:24.677Z,9.44
2017-11-25T04:09:50.831Z,9.44
2017-11-25T04:10:17.001Z,9.43
2017-11-25T04:10:43.153Z,9.41
2017-11-25T04:11:09.332Z,9.43
2017-11-25T04:11:35.495Z,9.41
2017-11-25T04:12:01.648Z,9.47
2017-11-25T04:12:27.821Z,9.44
2017-11-25T04:12:53.977Z,9.4
2017-11-25T04:13:20.127Z,9.43
2017-11-25T04:13:46.284Z,9.4
2017-11-25T04:14:12.447Z,9.4
2017-11-25T04:14:38.600Z,9.47
2017-11-25T04:15:04.800Z,9.5
2017-11-25T04:15:30.981Z,9.48
2017-11-25T04:15:57.138Z,9.56
2017-11-25T04:16:23.303Z,9.56
2017-11-25T04:16:49.456Z,9.64
2017-11-25T04:17:15.619Z,9.44
2017-11-25T04:17:41.771Z,9.55
2017-11-25T04:18:07.933Z,9.41
2017-11-25T04:18:34.090Z,9.43
2017-11-25T04:19:00.247Z,9.4
2017-11-25T04:19:26.408Z,9.41
2017-11-25T04:19:52.560Z,9.41
2017-11-25T04:20:18.723Z,9.31
2017-11-25T04:20:44.874Z,9.37
2017-11-25T04:21:11.030Z,9.25
2017-11-25T04:21:37.196Z,9.22
2017-11-25T04:22:03.355Z,9.19
2017-11-25T04:22:29.509Z,9.23
2017-11-25T04:22:55.666Z,9.22
2017-11-25T04:23:21.832Z,9.16
2017-11-25T04:23:48.011Z,9.22
2017-11-25T04:24:14.174Z,9.19
2017-11-25T04:24:40.356Z,9.18
2017-11-25T04:25:06.525Z,9.18
2017-11-25T04:25:32.681Z,9.23
2017-11-25T04:25:58.838Z,9.23
2017-11-25T04:26:25.023Z,9.23
2017-11-25T04:26:51.180Z,9.25
2017-11-25T04:27:17.332Z,9.23
2017-11-25T04:27:43.493Z,9.23
2017-11-25T04:28:09.651Z,9.25
2017-11-25T04:28:35.803Z,9.37
2017-11-25T04:29:01.961Z,9.34
2017-11-25T04:29:28.117Z,9.26
2017-11-25T04:29:54.276Z,9.36
2017-11-25T04:30:20.439Z,9.34
2017-11-25T04:30:46.592Z,9.43
2017-11-25T04:31:12.746Z,9.4
2017-11-25T04:31:38.908Z,9.34
2017-11-25T04:32:05.055Z,9.28
2017-11-25T04:32:31.216Z,9.28
2017-11-25T04:32:57.378Z,9.32
2017-11-25T04:33:23.530Z,9.32
2017-11-25T04:33:49.688Z,9.21
2017-11-25T04:34:15.842Z,9.21
2017-11-25T04:34:42.006Z,9.29
2017-11-25T04:35:08.169Z,9.28
2017-11-25T04:35:34.360Z,9.21
2017-11-25T04:36:00.514Z,9.29
2017-11-25T04:36:26.671Z,9.36
2017-11-25T04:36:52.828Z,9.37
2017-11-25T04:37:18.991Z,9.37
2017-11-25T04:37:45.143Z,9.36
2017-11-25T04:38:11.335Z,9.34
2017-11-25T04:38:37.488Z,9.4
2017-11-25T04:39:03.648Z,9.43
2017-11-25T04:39:29.811Z,9.37
2017-11-25T04:39:55.964Z,9.34
2017-11-25T04:40:22.118Z,9.39
2017-11-25T04:40:48.280Z,9.34
2017-11-25T04:41:14.443Z,9.37
2017-11-25T04:41:40.624Z,9.41
2017-11-25T04:42:06.780Z,9.36
2017-11-25T04:42:32.942Z,9.41
2017-11-25T04:42:59.103Z,9.37
2017-11-25T04:43:25.255Z,9.46
2017-11-25T04:43:51.413Z,9.43
2017-11-25T04:44:17.576Z,9.48
2017-11-25T04:44:43.734Z,9.44
2017-11-25T04:45:09.890Z,9.48
2017-11-25T04:45:36.049Z,9.46
2017-11-25T04:46:02.205Z,9.47
2017-11-25T04:46:28.365Z,9.47
2017-11-25T04:46:54.517Z,9.43
2017-11-25T04:47:20.681Z,9.46
2017-11-25T04:47:46.834Z,9.47
2017-11-25T04:48:12.991Z,9.47
2017-11-25T04:48:39.155Z,9.47
2017-11-25T04:49:05.322Z,9.44
2017-11-25T04:49:31.478Z,9.46
2017-11-25T04:49:57.631Z,9.48
2017-11-25T04:50:23.798Z,9.51
2017-11-25T04:50:49.947Z,9.48
2017-11-25T04:51:16.101Z,9.5
2017-11-25T04:51:42.260Z,9.46
2017-11-25T04:52:08.423Z,9.5
2017-11-25T04:52:34.579Z,9.51
2017-11-25T04:53:00.739Z,9.43
2017-11-25T04:53:26.888Z,9.41
2017-11-25T04:53:53.052Z,9.43
2017-11-25T04:54:19.202Z,9.41
2017-11-25T04:54:45.359Z,9.47
2017-11-25T04:55:11.519Z,9.41
2017-11-25T04:55:37.680Z,9.43
2017-11-25T04:56:03.836Z,9.41
2017-11-25T04:56:29.997Z,9.34
2017-11-25T04:56:56.165Z,9.32
2017-11-25T04:57:22.312Z,9.37
2017-11-25T04:57:48.467Z,9.39
2017-11-25T04:58:14.620Z,9.47
2017-11-25T04:58:40.784Z,9.47
2017-11-25T04:59:06.966Z,9.43
2017-11-25T04:59:33.136Z,9.5
2017-11-25T04:59:59.278Z,9.47
2017-11-25T05:00:25.444Z,9.43
2017-11-25T05:00:51.597Z,9.47
2017-11-25T05:01:17.870Z,9.39
2017-11-25T05:01:44.075Z,9.51
2017-11-25T05:02:10.168Z,9.47
2017-11-25T05:02:36.349Z,9.5
2017-11-25T05:03:02.510Z,9.47
2017-11-25T05:03:28.667Z,9.5
2017-11-25T05:03:54.820Z,9.43
2017-11-25T05:04:20.979Z,9.51
2017-11-25T05:04:47.162Z,9.41
2017-11-25T05:05:13.330Z,9.46
2017-11-25T05:05:39.514Z,9.47
2017-11-25T05:06:05.666Z,9.44
2017-11-25T05:06:31.834Z,9.48
2017-11-25T05:06:58.013Z,9.44
2017-11-25T05:07:24.170Z,9.41
2017-11-25T05:07:50.332Z,9.41
2017-11-25T05:08:16.484Z,9.5
2017-11-25T05:08:42.646Z,9.43
2017-11-25T05:09:08.806Z,9.4
2017-11-25T05:09:34.957Z,9.44
2017-11-25T05:10:01.113Z,9.44
2017-11-25T05:10:27.276Z,9.37
2017-11-25T05:10:53.430Z,9.37
2017-11-25T05:11:19.589Z,9.32
2017-11-25T05:11:45.744Z,9.39
2017-11-25T05:12:11.896Z,9.43
2017-11-25T05:12:38.060Z,9.39
2017-11-25T05:13:04.218Z,9.46
2017-11-25T05:13:30.373Z,9.44
2017-11-25T05:13:56.531Z,9.46
2017-11-25T05:14:22.696Z,9.37
2017-11-25T05:14:48.854Z,9.44
2017-11-25T05:15:15.013Z,9.44
2017-11-25T05:15:41.167Z,9.46
2017-11-25T05:16:07.328Z,9.5
2017-11-25T05:16:33.506Z,9.48
2017-11-25T05:16:59.654Z,9.47
2017-11-25T05:17:25.846Z,9.46
2017-11-25T05:17:51.997Z,9.4
2017-11-25T05:18:18.161Z,9.41
2017-11-25T05:18:44.324Z,9.41
2017-11-25T05:19:10.487Z,9.44
2017-11-25T05:19:36.639Z,9.48
2017-11-25T05:20:02.799Z,9.48
2017-11-25T05:20:28.953Z,9.48
2017-11-25T05:20:55.114Z,9.43
2017-11-25T05:21:21.268Z,9.54
2017-11-25T05:21:47.434Z,9.47
2017-11-25T05:22:13.580Z,9.37
2017-11-25T05:22:39.743Z,9.39
2017-11-25T05:23:05.902Z,9.39
2017-11-25T05:23:32.508Z,9.41
2017-11-25T05:23:58.660Z,9.37
2017-11-25T05:24:24.824Z,9.32
2017-11-25T05:24:50.983Z,9.29
2017-11-25T05:25:17.134Z,9.36
2017-11-25T05:25:43.300Z,9.16
2017-11-25T05:26:09.452Z,9.22
2017-11-25T05:26:35.608Z,9.23
2017-11-25T05:27:01.770Z,9.21
2017-11-25T05:27:27.929Z,9.23
2017-11-25T05:27:54.088Z,9.25
2017-11-25T05:28:20.248Z,9.13
2017-11-25T05:28:46.403Z,9.14
2017-11-25T05:29:12.556Z,9.13
2017-11-25T05:29:38.715Z,9.14
2017-11-25T05:30:04.877Z,9.11
2017-11-25T05:30:31.030Z,9.13
2017-11-25T05:30:57.187Z,9.22
2017-11-25T05:31:23.375Z,9.18
2017-11-25T05:31:49.527Z,9.23
2017-11-25T05:32:15.694Z,9.21
2017-11-25T05:32:41.855Z,9.23
2017-11-25T05:33:08.012Z,9.23
2017-11-25T05:33:34.167Z,9.22
2017-11-25T05:34:00.326Z,9.22
2017-11-25T05:34:26.509Z,9.23
2017-11-25T05:34:52.662Z,9.21
2017-11-25T05:35:18.826Z,9.28
2017-11-25T05:35:44.983Z,9.23
2017-11-25T05:36:11.139Z,9.18
2017-11-25T05:36:37.299Z,9.22
2017-11-25T05:37:03.448Z,9.19
2017-11-25T05:37:29.608Z,9.18
2017-11-25T05:37:55.783Z,9.22
2017-11-25T05:38:21.931Z,9.19
2017-11-25T05:38:48.095Z,9.22
2017-11-25T05:39:14.246Z,9.22
2017-11-25T05:39:40.409Z,9.25
2017-11-25T05:40:06.562Z,9.26
2017-11-25T05:40:32.718Z,9.29
2017-11-25T05:40:58.879Z,9.23
2017-11-25T05:41:25.030Z,9.23
2017-11-25T05:41:51.184Z,9.32
2017-11-25T05:42:17.339Z,9.21
2017-11-25T05:42:43.497Z,9.18
2017-11-25T05:43:09.665Z,9.29
2017-11-25T05:43:35.844Z,9.37
2017-11-25T05:44:02.005Z,9.41
2017-11-25T05:44:28.160Z,9.34
2017-11-25T05:44:54.322Z,9.37
2017-11-25T05:45:20.475Z,9.31
2017-11-25T05:45:46.637Z,9.34
2017-11-25T05:46:12.793Z,9.28
2017-11-25T05:46:38.947Z,9.31
2017-11-25T05:47:05.117Z,9.32
2017-11-25T05:47:31.265Z,9.28
2017-11-25T05:47:57.429Z,9.37
2017-11-25T05:48:23.582Z,9.37
2017-11-25T05:48:49.745Z,9.28